Casper-Natrona County International Airport
KCPR : now visible

Airfield :











YOU CAN JOIN US ON...

 
LOGIN :

Register | Disclaimer

   EN    FR    IT 

 









Legend :    VFR   Marginal VFR   IFR   Intensive IFR   Very Intensive IFR
Visi :
Ceiling :
>= 8 km
>= 3000ft
5 to 8 km
1000 to 3000 ft
1500m to 5 km
500 to 1000 ft
800 to 1500m
200 to 500 ft
< 800m
< 200 ft
Symbols :   Thunderstorms  Fog  Heavy snow  Heavy precipitations  Wind > 20 kt






- Airport Elevation : 5350 ft
- IATA code : CPR


KCPR - Casper-Natrona County International

CURRENT METAR :
  • 212353Z 34017G24KT 10SM FEW090 07/01 A2976 RMK AO2 PK WND 01027/2323 WSHFT 2247 PRESRR SLP071 60000 T00670011 10200 20067 53011

EXPIRED METARs :
  • 212301Z 36017G23KT 10SM CLR 12/01 A2971 RMK AO2 WSHFT 2247 T01220011
  • 212253Z 32013G38KT 10SM CLR 16/M01 A2970 RMK AO2 PK WND 27038/2247 SLP031 T01611006
  • 212153Z 25024G39KT 10SM CLR 18/M01 A2971 RMK AO2 PK WND 24042/2138 SLP031 T01831011
  • 212140Z 25026G42KT 10SM CLR 19/M01 A2971 RMK AO2 PK WND 24042/2138 T01941006

TAF KCPR
Valid from the 22 at 00:00 until the 23 at 00:00 UTC


212338Z 2200/2224 34015G25KT P6SM SCT120
FM220100 01012KT P6SM SCT120
FM220400 04008KT P6SM OVC020
FM221000 34012KT P6SM VCSH OVC020
FM221400 02013KT 2SM -SN OVC010
KZDV FIR / North America



MET'MAP, your aeronautical weather chart ! - Copyright ORBIFLY December 2007 - Disclaimer

ORBIFLY MET'MAP TEAM :

Programming & Development : Alexandra Zaïnal
Concept & original design : Baudouin d'Aumeries
Assistance for programming : Marc-Olivier Méhu
Technical & hardware support : Manuel Goepfert

Contact : metmap@orbifly.com




SOURCES & CREDITS :

   NOAA       Earth
Advisory